sensor_id;sensor_type;location;lat;lon;timestamp;pressure;altitude;pressure_sealevel;temperature;humidity
64628;BME280;68467;50.960;0.314;2024-03-29T00:02:24;96876.66;;;7.15;100.00
64628;BME280;68467;50.960;0.314;2024-03-29T00:04:52;96890.02;;;7.59;100.00
64628;BME280;68467;50.960;0.314;2024-03-29T00:07:19;96881.45;;;7.13;100.00
64628;BME280;68467;50.960;0.314;2024-03-29T00:09:45;96880.77;;;7.34;100.00
64628;BME280;68467;50.960;0.314;2024-03-29T00:12:12;96881.80;;;7.29;100.00
64628;BME280;68467;50.960;0.314;2024-03-29T00:14:39;96875.76;;;7.28;100.00
64628;BME280;68467;50.960;0.314;2024-03-29T00:17:07;96863.66;;;7.41;100.00
64628;BME280;68467;50.960;0.314;2024-03-29T00:19:34;96868.20;;;7.83;100.00
64628;BME280;68467;50.960;0.314;2024-03-29T00:22:01;96879.27;;;8.88;100.00
64628;BME280;68467;50.960;0.314;2024-03-29T00:24:28;96869.74;;;9.24;100.00
64628;BME280;68467;50.960;0.314;2024-03-29T00:26:55;96873.12;;;9.58;100.00
64628;BME280;68467;50.960;0.314;2024-03-29T00:29:22;96868.35;;;8.42;100.00
64628;BME280;68467;50.960;0.314;2024-03-29T00:31:51;96865.82;;;7.98;100.00
64628;BME280;68467;50.960;0.314;2024-03-29T00:34:18;96862.77;;;8.81;100.00
64628;BME280;68467;50.960;0.314;2024-03-29T00:36:46;96860.06;;;8.83;100.00
64628;BME280;68467;50.960;0.314;2024-03-29T00:39:13;96855.16;;;9.11;100.00
64628;BME280;68467;50.960;0.314;2024-03-29T00:41:40;96852.74;;;9.39;100.00
64628;BME280;68467;50.960;0.314;2024-03-29T00:44:07;96840.06;;;9.24;100.00
64628;BME280;68467;50.960;0.314;2024-03-29T00:46:34;96850.64;;;9.38;100.00
64628;BME280;68467;50.960;0.314;2024-03-29T00:49:01;96838.26;;;9.19;100.00
64628;BME280;68467;50.960;0.314;2024-03-29T00:51:28;96850.55;;;9.30;100.00
64628;BME280;68467;50.960;0.314;2024-03-29T00:53:56;96837.03;;;9.29;100.00
64628;BME280;68467;50.960;0.314;2024-03-29T00:56:23;96843.24;;;8.44;100.00
64628;BME280;68467;50.960;0.314;2024-03-29T00:58:50;96850.37;;;9.02;100.00
64628;BME280;68467;50.960;0.314;2024-03-29T01:01:18;96841.79;;;9.40;100.00
64628;BME280;68467;50.960;0.314;2024-03-29T01:03:46;96856.99;;;9.49;100.00
64628;BME280;68467;50.960;0.314;2024-03-29T01:06:14;96864.14;;;9.84;100.00
64628;BME280;68467;50.960;0.314;2024-03-29T01:08:41;96857.59;;;9.23;100.00
64628;BME280;68467;50.960;0.314;2024-03-29T01:11:08;96860.08;;;9.17;100.00
64628;BME280;68467;50.960;0.314;2024-03-29T01:13:35;96860.06;;;8.45;100.00
64628;BME280;68467;50.960;0.314;2024-03-29T01:16:02;96865.39;;;8.62;100.00
64628;BME280;68467;50.960;0.314;2024-03-29T01:18:31;96872.16;;;8.72;100.00
64628;BME280;68467;50.960;0.314;2024-03-29T01:20:58;96877.80;;;8.64;100.00
64628;BME280;68467;50.960;0.314;2024-03-29T01:23:25;96870.25;;;8.90;100.00
64628;BME280;68467;50.960;0.314;2024-03-29T01:25:53;96867.71;;;8.63;100.00
64628;BME280;68467;50.960;0.314;2024-03-29T01:28:20;96876.12;;;5.96;100.00
64628;BME280;68467;50.960;0.314;2024-03-29T01:30:52;96876.83;;;8.70;100.00
64628;BME280;68467;50.960;0.314;2024-03-29T01:33:19;96872.92;;;8.83;100.00
64628;BME280;68467;50.960;0.314;2024-03-29T01:35:46;96851.52;;;8.31;100.00
64628;BME280;68467;50.960;0.314;2024-03-29T01:38:14;96877.83;;;7.97;100.00
64628;BME280;68467;50.960;0.314;2024-03-29T01:40:42;96864.69;;;8.11;100.00
64628;BME280;68467;50.960;0.314;2024-03-29T01:43:09;96877.99;;;8.48;100.00
64628;BME280;68467;50.960;0.314;2024-03-29T01:45:38;96880.34;;;8.67;100.00
64628;BME280;68467;50.960;0.314;2024-03-29T01:48:08;96913.02;;;8.88;100.00
64628;BME280;68467;50.960;0.314;2024-03-29T01:50:35;96920.11;;;8.70;100.00
64628;BME280;68467;50.960;0.314;2024-03-29T01:53:05;96914.32;;;7.64;100.00
64628;BME280;68467;50.960;0.314;2024-03-29T01:55:33;96925.02;;;8.30;100.00
64628;BME280;68467;50.960;0.314;2024-03-29T01:58:00;96918.76;;;9.31;100.00
64628;BME280;68467;50.960;0.314;2024-03-29T02:00:28;96916.63;;;9.39;100.00
64628;BME280;68467;50.960;0.314;2024-03-29T02:02:57;96911.80;;;9.55;100.00
64628;BME280;68467;50.960;0.314;2024-03-29T02:05:25;96906.48;;;8.82;100.00
64628;BME280;68467;50.960;0.314;2024-03-29T02:07:54;96911.32;;;8.37;100.00
64628;BME280;68467;50.960;0.314;2024-03-29T02:10:22;96913.86;;;9.05;100.00
64628;BME280;68467;50.960;0.314;2024-03-29T02:12:49;96905.15;;;9.48;100.00
64628;BME280;68467;50.960;0.314;2024-03-29T02:15:18;96908.47;;;10.09;100.00
64628;BME280;68467;50.960;0.314;2024-03-29T02:17:45;96913.30;;;10.35;100.00
64628;BME280;68467;50.960;0.314;2024-03-29T02:20:12;96905.80;;;9.92;100.00
64628;BME280;68467;50.960;0.314;2024-03-29T02:22:46;96916.47;;;9.60;100.00
64628;BME280;68467;50.960;0.314;2024-03-29T02:25:15;96910.25;;;9.52;100.00
64628;BME280;68467;50.960;0.314;2024-03-29T02:27:43;96911.32;;;9.18;100.00
64628;BME280;68467;50.960;0.314;2024-03-29T02:30:13;96911.65;;;8.99;100.00
64628;BME280;68467;50.960;0.314;2024-03-29T02:32:41;96905.14;;;9.32;100.00
64628;BME280;68467;50.960;0.314;2024-03-29T02:35:09;96892.93;;;9.44;100.00
64628;BME280;68467;50.960;0.314;2024-03-29T02:37:36;96898.64;;;8.20;100.00
64628;BME280;68467;50.960;0.314;2024-03-29T02:40:05;96899.31;;;9.03;100.00
64628;BME280;68467;50.960;0.314;2024-03-29T02:42:32;96906.64;;;8.93;100.00
64628;BME280;68467;50.960;0.314;2024-03-29T02:44:59;96906.95;;;8.83;100.00
64628;BME280;68467;50.960;0.314;2024-03-29T02:47:27;96906.75;;;8.68;100.00
64628;BME280;68467;50.960;0.314;2024-03-29T02:49:55;96906.88;;;9.29;100.00
64628;BME280;68467;50.960;0.314;2024-03-29T02:52:22;96911.84;;;8.64;100.00
64628;BME280;68467;50.960;0.314;2024-03-29T02:54:49;96918.43;;;8.95;100.00
64628;BME280;68467;50.960;0.314;2024-03-29T02:57:17;96908.34;;;8.24;100.00
64628;BME280;68467;50.960;0.314;2024-03-29T02:59:45;96913.10;;;8.60;100.00
64628;BME280;68467;50.960;0.314;2024-03-29T03:02:14;96905.64;;;8.76;100.00
64628;BME280;68467;50.960;0.314;2024-03-29T03:04:41;96921.85;;;8.49;100.00
64628;BME280;68467;50.960;0.314;2024-03-29T03:07:08;96922.88;;;8.51;100.00
64628;BME280;68467;50.960;0.314;2024-03-29T03:09:37;96909.67;;;9.05;100.00
64628;BME280;68467;50.960;0.314;2024-03-29T03:12:06;96924.79;;;9.06;100.00
64628;BME280;68467;50.960;0.314;2024-03-29T03:14:33;96930.20;;;9.12;100.00
64628;BME280;68467;50.960;0.314;2024-03-29T03:17:00;96941.79;;;8.60;100.00
64628;BME280;68467;50.960;0.314;2024-03-29T03:19:28;96918.11;;;8.79;100.00
64628;BME280;68467;50.960;0.314;2024-03-29T03:21:55;96933.82;;;8.78;100.00
64628;BME280;68467;50.960;0.314;2024-03-29T03:24:22;96939.58;;;9.00;100.00
64628;BME280;68467;50.960;0.314;2024-03-29T03:26:51;96939.58;;;8.77;100.00
64628;BME280;68467;50.960;0.314;2024-03-29T03:29:18;96928.18;;;8.73;100.00
64628;BME280;68467;50.960;0.314;2024-03-29T03:31:45;96937.03;;;8.41;100.00
64628;BME280;68467;50.960;0.314;2024-03-29T03:34:12;96925.71;;;9.14;100.00
64628;BME280;68467;50.960;0.314;2024-03-29T03:36:39;96930.21;;;9.26;100.00
64628;BME280;68467;50.960;0.314;2024-03-29T03:39:06;96909.90;;;8.42;100.00
64628;BME280;68467;50.960;0.314;2024-03-29T03:41:33;96928.40;;;8.52;100.00
64628;BME280;68467;50.960;0.314;2024-03-29T03:44:00;96930.57;;;8.41;100.00
64628;BME280;68467;50.960;0.314;2024-03-29T03:46:27;96909.11;;;8.58;100.00
64628;BME280;68467;50.960;0.314;2024-03-29T03:48:54;96915.71;;;8.91;100.00
64628;BME280;68467;50.960;0.314;2024-03-29T03:51:21;96924.71;;;8.52;100.00
64628;BME280;68467;50.960;0.314;2024-03-29T03:53:48;96928.03;;;8.54;100.00
64628;BME280;68467;50.960;0.314;2024-03-29T03:56:16;96932.23;;;8.76;100.00
64628;BME280;68467;50.960;0.314;2024-03-29T03:58:44;96896.51;;;9.11;100.00
64628;BME280;68467;50.960;0.314;2024-03-29T04:01:12;96930.41;;;8.93;100.00
64628;BME280;68467;50.960;0.314;2024-03-29T04:03:39;96926.89;;;8.78;100.00
64628;BME280;68467;50.960;0.314;2024-03-29T04:06:06;96925.92;;;8.77;100.00
64628;BME280;68467;50.960;0.314;2024-03-29T04:08:34;96916.52;;;9.07;100.00
64628;BME280;68467;50.960;0.314;2024-03-29T04:11:02;96934.03;;;9.54;100.00
64628;BME280;68467;50.960;0.314;2024-03-29T04:13:29;96931.95;;;9.53;100.00
64628;BME280;68467;50.960;0.314;2024-03-29T04:16:01;96941.69;;;9.65;100.00
64628;BME280;68467;50.960;0.314;2024-03-29T04:18:29;96939.75;;;9.01;100.00
64628;BME280;68467;50.960;0.314;2024-03-29T04:20:56;96940.78;;;9.77;100.00
64628;BME280;68467;50.960;0.314;2024-03-29T04:23:24;96944.12;;;9.57;100.00
64628;BME280;68467;50.960;0.314;2024-03-29T04:25:52;96948.30;;;9.50;100.00
64628;BME280;68467;50.960;0.314;2024-03-29T04:28:19;96948.28;;;9.02;100.00
64628;BME280;68467;50.960;0.314;2024-03-29T04:30:51;96956.78;;;8.51;100.00
64628;BME280;68467;50.960;0.314;2024-03-29T04:33:18;96948.69;;;9.07;100.00
64628;BME280;68467;50.960;0.314;2024-03-29T04:35:55;96955.26;;;8.69;100.00
64628;BME280;68467;50.960;0.314;2024-03-29T04:38:23;96958.13;;;9.17;100.00
64628;BME280;68467;50.960;0.314;2024-03-29T04:40:51;96949.13;;;9.18;100.00
64628;BME280;68467;50.960;0.314;2024-03-29T04:43:22;96949.20;;;9.34;100.00
64628;BME280;68467;50.960;0.314;2024-03-29T04:45:49;96953.89;;;8.98;100.00
64628;BME280;68467;50.960;0.314;2024-03-29T04:48:18;96953.24;;;9.57;100.00
64628;BME280;68467;50.960;0.314;2024-03-29T04:50:45;96950.74;;;8.81;100.00
64628;BME280;68467;50.960;0.314;2024-03-29T04:53:12;96956.26;;;8.83;100.00
64628;BME280;68467;50.960;0.314;2024-03-29T04:55:39;96955.58;;;8.66;100.00
64628;BME280;68467;50.960;0.314;2024-03-29T04:58:06;96960.93;;;8.51;100.00
64628;BME280;68467;50.960;0.314;2024-03-29T05:00:33;96972.75;;;8.85;100.00
64628;BME280;68467;50.960;0.314;2024-03-29T05:03:00;96968.93;;;9.28;100.00
64628;BME280;68467;50.960;0.314;2024-03-29T05:05:27;96950.56;;;8.38;100.00
64628;BME280;68467;50.960;0.314;2024-03-29T05:07:55;96970.17;;;8.35;100.00
64628;BME280;68467;50.960;0.314;2024-03-29T05:10:22;96960.73;;;8.78;100.00
64628;BME280;68467;50.960;0.314;2024-03-29T05:12:49;96969.45;;;8.69;100.00
64628;BME280;68467;50.960;0.314;2024-03-29T05:15:16;96971.02;;;8.79;100.00
64628;BME280;68467;50.960;0.314;2024-03-29T05:17:44;96979.62;;;8.69;100.00
64628;BME280;68467;50.960;0.314;2024-03-29T05:20:11;96975.49;;;8.90;100.00
64628;BME280;68467;50.960;0.314;2024-03-29T05:22:39;96966.90;;;8.96;100.00
64628;BME280;68467;50.960;0.314;2024-03-29T05:25:06;96971.63;;;8.49;100.00
64628;BME280;68467;50.960;0.314;2024-03-29T05:27:33;96972.09;;;7.41;100.00
64628;BME280;68467;50.960;0.314;2024-03-29T05:30:00;96982.20;;;8.61;100.00
64628;BME280;68467;50.960;0.314;2024-03-29T05:32:27;96988.69;;;7.96;100.00
64628;BME280;68467;50.960;0.314;2024-03-29T05:34:54;96989.16;;;8.30;100.00
64628;BME280;68467;50.960;0.314;2024-03-29T05:37:21;97000.68;;;8.10;100.00
64628;BME280;68467;50.960;0.314;2024-03-29T05:39:48;97004.55;;;6.10;100.00
64628;BME280;68467;50.960;0.314;2024-03-29T05:42:16;96998.92;;;5.91;100.00
64628;BME280;68467;50.960;0.314;2024-03-29T05:44:43;97004.14;;;5.78;100.00
64628;BME280;68467;50.960;0.314;2024-03-29T05:47:10;96999.22;;;5.86;100.00
64628;BME280;68467;50.960;0.314;2024-03-29T05:49:37;97012.23;;;5.47;100.00
64628;BME280;68467;50.960;0.314;2024-03-29T05:52:04;97007.34;;;7.95;100.00
64628;BME280;68467;50.960;0.314;2024-03-29T05:54:32;97002.89;;;8.33;100.00
64628;BME280;68467;50.960;0.314;2024-03-29T05:56:59;97004.16;;;7.52;100.00
64628;BME280;68467;50.960;0.314;2024-03-29T05:59:26;97006.28;;;7.91;100.00
64628;BME280;68467;50.960;0.314;2024-03-29T06:01:53;97024.24;;;7.85;100.00
64628;BME280;68467;50.960;0.314;2024-03-29T06:04:20;97022.64;;;7.95;100.00
64628;BME280;68467;50.960;0.314;2024-03-29T06:06:47;97026.44;;;8.51;100.00
64628;BME280;68467;50.960;0.314;2024-03-29T06:09:14;97025.07;;;8.54;100.00
64628;BME280;68467;50.960;0.314;2024-03-29T06:11:41;97032.08;;;8.46;100.00
64628;BME280;68467;50.960;0.314;2024-03-29T06:14:08;97022.90;;;8.34;100.00
64628;BME280;68467;50.960;0.314;2024-03-29T06:16:35;97008.71;;;8.19;100.00
64628;BME280;68467;50.960;0.314;2024-03-29T06:19:03;97014.77;;;8.17;100.00
64628;BME280;68467;50.960;0.314;2024-03-29T06:21:30;97019.09;;;8.35;100.00
64628;BME280;68467;50.960;0.314;2024-03-29T06:23:58;97018.42;;;8.52;100.00
64628;BME280;68467;50.960;0.314;2024-03-29T06:26:25;97015.70;;;7.36;100.00
64628;BME280;68467;50.960;0.314;2024-03-29T06:28:52;97022.23;;;8.35;100.00
64628;BME280;68467;50.960;0.314;2024-03-29T06:31:19;97026.55;;;7.63;100.00
64628;BME280;68467;50.960;0.314;2024-03-29T06:33:46;97019.51;;;8.01;100.00
64628;BME280;68467;50.960;0.314;2024-03-29T06:36:13;97019.92;;;8.26;100.00
64628;BME280;68467;50.960;0.314;2024-03-29T06:38:41;97023.00;;;8.05;100.00
64628;BME280;68467;50.960;0.314;2024-03-29T06:41:08;97032.65;;;8.21;100.00
64628;BME280;68467;50.960;0.314;2024-03-29T06:43:35;97026.37;;;8.61;100.00
64628;BME280;68467;50.960;0.314;2024-03-29T06:46:02;97030.79;;;8.76;100.00
64628;BME280;68467;50.960;0.314;2024-03-29T06:48:29;97021.73;;;8.01;100.00
64628;BME280;68467;50.960;0.314;2024-03-29T06:50:56;97032.81;;;8.28;100.00
64628;BME280;68467;50.960;0.314;2024-03-29T06:53:24;97036.51;;;8.68;100.00
64628;BME280;68467;50.960;0.314;2024-03-29T06:55:51;97037.21;;;8.34;100.00
64628;BME280;68467;50.960;0.314;2024-03-29T06:58:18;97046.09;;;8.31;100.00
64628;BME280;68467;50.960;0.314;2024-03-29T07:00:46;97054.23;;;8.53;100.00
64628;BME280;68467;50.960;0.314;2024-03-29T07:03:14;97055.84;;;7.92;100.00
64628;BME280;68467;50.960;0.314;2024-03-29T07:05:42;97028.32;;;8.25;100.00
64628;BME280;68467;50.960;0.314;2024-03-29T07:08:10;97049.93;;;8.32;100.00
64628;BME280;68467;50.960;0.314;2024-03-29T07:10:37;97035.63;;;8.73;100.00
64628;BME280;68467;50.960;0.314;2024-03-29T07:13:06;97037.06;;;7.96;100.00
64628;BME280;68467;50.960;0.314;2024-03-29T07:15:33;97029.56;;;7.95;100.00
64628;BME280;68467;50.960;0.314;2024-03-29T07:18:01;97045.84;;;7.92;100.00
64628;BME280;68467;50.960;0.314;2024-03-29T07:20:29;97046.03;;;8.25;100.00
64628;BME280;68467;50.960;0.314;2024-03-29T07:22:56;97036.75;;;8.66;100.00
64628;BME280;68467;50.960;0.314;2024-03-29T07:25:24;97041.48;;;8.56;100.00
64628;BME280;68467;50.960;0.314;2024-03-29T07:27:51;97020.70;;;8.59;100.00
64628;BME280;68467;50.960;0.314;2024-03-29T07:30:18;97031.79;;;8.56;100.00
64628;BME280;68467;50.960;0.314;2024-03-29T07:32:46;97027.79;;;8.50;100.00
64628;BME280;68467;50.960;0.314;2024-03-29T07:35:13;97029.90;;;8.47;100.00
64628;BME280;68467;50.960;0.314;2024-03-29T07:37:40;97026.86;;;8.68;100.00
64628;BME280;68467;50.960;0.314;2024-03-29T07:40:08;97032.55;;;9.23;100.00
64628;BME280;68467;50.960;0.314;2024-03-29T07:42:35;97028.65;;;8.72;100.00
64628;BME280;68467;50.960;0.314;2024-03-29T07:45:03;97027.39;;;8.65;100.00
64628;BME280;68467;50.960;0.314;2024-03-29T07:47:31;97038.33;;;8.77;100.00
64628;BME280;68467;50.960;0.314;2024-03-29T07:49:58;97033.29;;;7.83;100.00
64628;BME280;68467;50.960;0.314;2024-03-29T07:52:26;97057.19;;;8.00;100.00
64628;BME280;68467;50.960;0.314;2024-03-29T07:54:53;97021.17;;;8.31;100.00
64628;BME280;68467;50.960;0.314;2024-03-29T07:57:20;97057.58;;;8.82;100.00
64628;BME280;68467;50.960;0.314;2024-03-29T07:59:50;97056.44;;;8.84;100.00
64628;BME280;68467;50.960;0.314;2024-03-29T08:02:18;97051.48;;;9.10;100.00
64628;BME280;68467;50.960;0.314;2024-03-29T08:04:45;97050.71;;;8.86;100.00
64628;BME280;68467;50.960;0.314;2024-03-29T08:07:12;97056.44;;;8.42;100.00
64628;BME280;68467;50.960;0.314;2024-03-29T08:09:39;97064.11;;;9.09;100.00
64628;BME280;68467;50.960;0.314;2024-03-29T08:12:07;97039.75;;;7.67;100.00
64628;BME280;68467;50.960;0.314;2024-03-29T08:14:34;97054.73;;;8.43;100.00
64628;BME280;68467;50.960;0.314;2024-03-29T08:17:02;97060.29;;;9.43;100.00
64628;BME280;68467;50.960;0.314;2024-03-29T08:19:29;97062.58;;;8.82;100.00
64628;BME280;68467;50.960;0.314;2024-03-29T08:21:56;97061.79;;;9.34;100.00
64628;BME280;68467;50.960;0.314;2024-03-29T08:24:23;97057.93;;;9.56;100.00
64628;BME280;68467;50.960;0.314;2024-03-29T08:26:50;97065.18;;;9.70;100.00
64628;BME280;68467;50.960;0.314;2024-03-29T08:29:18;97057.40;;;9.33;100.00
64628;BME280;68467;50.960;0.314;2024-03-29T08:31:46;97072.86;;;9.54;100.00
64628;BME280;68467;50.960;0.314;2024-03-29T08:34:12;97058.20;;;9.82;100.00
64628;BME280;68467;50.960;0.314;2024-03-29T08:36:40;97068.26;;;9.34;100.00
64628;BME280;68467;50.960;0.314;2024-03-29T08:39:07;97060.44;;;9.79;100.00
64628;BME280;68467;50.960;0.314;2024-03-29T08:41:34;97068.76;;;9.55;100.00
64628;BME280;68467;50.960;0.314;2024-03-29T08:44:01;97049.97;;;9.16;100.00
64628;BME280;68467;50.960;0.314;2024-03-29T08:46:29;97099.74;;;6.93;100.00
64628;BME280;68467;50.960;0.314;2024-03-29T08:48:56;97072.94;;;9.85;100.00
64628;BME280;68467;50.960;0.314;2024-03-29T08:51:23;97079.63;;;9.88;100.00
64628;BME280;68467;50.960;0.314;2024-03-29T08:53:51;97086.28;;;9.43;100.00
64628;BME280;68467;50.960;0.314;2024-03-29T08:56:18;97084.44;;;7.04;100.00
64628;BME280;68467;50.960;0.314;2024-03-29T08:58:45;97096.59;;;6.72;100.00
64628;BME280;68467;50.960;0.314;2024-03-29T09:01:13;97080.06;;;6.61;100.00
64628;BME280;68467;50.960;0.314;2024-03-29T09:03:39;97093.46;;;7.10;100.00
64628;BME280;68467;50.960;0.314;2024-03-29T09:06:06;97109.34;;;6.91;100.00
64628;BME280;68467;50.960;0.314;2024-03-29T09:08:34;97107.34;;;6.75;100.00
64628;BME280;68467;50.960;0.314;2024-03-29T09:11:02;97101.40;;;6.98;100.00
64628;BME280;68467;50.960;0.314;2024-03-29T09:13:30;97105.08;;;7.39;100.00
64628;BME280;68467;50.960;0.314;2024-03-29T09:15:58;97096.97;;;7.53;100.00
64628;BME280;68467;50.960;0.314;2024-03-29T09:18:26;97099.20;;;7.61;100.00
64628;BME280;68467;50.960;0.314;2024-03-29T09:20:56;97098.69;;;7.85;100.00
64628;BME280;68467;50.960;0.314;2024-03-29T09:23:25;97075.75;;;7.59;100.00
64628;BME280;68467;50.960;0.314;2024-03-29T09:25:52;97104.88;;;7.71;100.00
64628;BME280;68467;50.960;0.314;2024-03-29T09:28:19;97080.46;;;7.52;100.00
64628;BME280;68467;50.960;0.314;2024-03-29T09:30:47;97117.55;;;7.27;100.00
64628;BME280;68467;50.960;0.314;2024-03-29T09:33:15;97111.32;;;7.24;100.00
64628;BME280;68467;50.960;0.314;2024-03-29T09:35:43;97127.01;;;7.23;100.00
64628;BME280;68467;50.960;0.314;2024-03-29T09:38:11;97126.43;;;7.26;100.00
64628;BME280;68467;50.960;0.314;2024-03-29T09:40:38;97121.66;;;7.08;100.00
64628;BME280;68467;50.960;0.314;2024-03-29T09:43:06;97141.25;;;7.42;100.00
64628;BME280;68467;50.960;0.314;2024-03-29T09:45:37;97147.27;;;7.43;100.00
64628;BME280;68467;50.960;0.314;2024-03-29T09:48:07;97148.19;;;7.59;100.00
64628;BME280;68467;50.960;0.314;2024-03-29T09:50:35;97141.33;;;7.47;100.00
64628;BME280;68467;50.960;0.314;2024-03-29T09:53:05;97157.52;;;7.67;100.00
64628;BME280;68467;50.960;0.314;2024-03-29T09:55:32;97139.60;;;7.71;100.00
64628;BME280;68467;50.960;0.314;2024-03-29T09:57:59;97155.99;;;8.05;100.00
64628;BME280;68467;50.960;0.314;2024-03-29T10:00:27;97144.69;;;7.97;100.00
64628;BME280;68467;50.960;0.314;2024-03-29T10:02:56;97171.23;;;8.25;100.00
64628;BME280;68467;50.960;0.314;2024-03-29T10:05:23;97132.36;;;8.05;100.00
64628;BME280;68467;50.960;0.314;2024-03-29T10:07:53;97150.11;;;8.25;100.00
64628;BME280;68467;50.960;0.314;2024-03-29T10:10:20;97148.74;;;8.07;100.00
64628;BME280;68467;50.960;0.314;2024-03-29T10:12:47;97158.50;;;8.35;100.00
64628;BME280;68467;50.960;0.314;2024-03-29T10:15:15;97157.43;;;8.48;100.00
64628;BME280;68467;50.960;0.314;2024-03-29T10:17:46;97144.96;;;8.08;100.00
64628;BME280;68467;50.960;0.314;2024-03-29T10:20:15;97142.60;;;8.16;100.00
64628;BME280;68467;50.960;0.314;2024-03-29T10:22:43;97154.32;;;8.55;100.00
64628;BME280;68467;50.960;0.314;2024-03-29T10:25:11;97158.02;;;8.64;100.00
64628;BME280;68467;50.960;0.314;2024-03-29T10:27:39;97149.72;;;8.98;100.00
64628;BME280;68467;50.960;0.314;2024-03-29T10:30:08;97130.04;;;8.47;100.00
64628;BME280;68467;50.960;0.314;2024-03-29T10:32:37;97157.34;;;8.83;100.00
64628;BME280;68467;50.960;0.314;2024-03-29T10:35:08;97137.48;;;9.13;100.00
64628;BME280;68467;50.960;0.314;2024-03-29T10:37:35;97168.62;;;8.63;100.00
64628;BME280;68467;50.960;0.314;2024-03-29T10:40:03;97171.24;;;9.49;100.00
64628;BME280;68467;50.960;0.314;2024-03-29T10:42:31;97169.03;;;9.51;100.00
64628;BME280;68467;50.960;0.314;2024-03-29T10:44:59;97178.53;;;9.29;100.00
64628;BME280;68467;50.960;0.314;2024-03-29T10:47:28;97158.31;;;9.73;100.00
64628;BME280;68467;50.960;0.314;2024-03-29T10:49:56;97169.20;;;9.32;100.00
64628;BME280;68467;50.960;0.314;2024-03-29T10:52:26;97160.76;;;9.11;100.00
64628;BME280;68467;50.960;0.314;2024-03-29T10:54:54;97175.16;;;9.62;100.00
64628;BME280;68467;50.960;0.314;2024-03-29T10:57:23;97104.98;;;9.20;100.00
64628;BME280;68467;50.960;0.314;2024-03-29T10:59:59;97187.24;;;10.92;100.00
64628;BME280;68467;50.960;0.314;2024-03-29T11:02:38;97164.49;;;9.42;100.00
64628;BME280;68467;50.960;0.314;2024-03-29T11:05:11;97189.44;;;9.36;100.00
64628;BME280;68467;50.960;0.314;2024-03-29T11:07:41;97197.26;;;9.82;100.00
64628;BME280;68467;50.960;0.314;2024-03-29T11:10:15;97198.05;;;9.72;100.00
64628;BME280;68467;50.960;0.314;2024-03-29T11:12:54;97194.62;;;10.00;100.00
64628;BME280;68467;50.960;0.314;2024-03-29T11:15:28;97187.05;;;9.55;100.00
64628;BME280;68467;50.960;0.314;2024-03-29T11:17:57;97176.51;;;9.42;100.00
64628;BME280;68467;50.960;0.314;2024-03-29T11:20:26;97193.27;;;9.75;100.00
64628;BME280;68467;50.960;0.314;2024-03-29T11:22:54;97186.67;;;10.15;100.00
64628;BME280;68467;50.960;0.314;2024-03-29T11:25:21;97176.91;;;9.81;100.00
64628;BME280;68467;50.960;0.314;2024-03-29T11:27:48;97190.47;;;10.43;100.00
64628;BME280;68467;50.960;0.314;2024-03-29T11:30:17;97192.40;;;10.51;100.00
64628;BME280;68467;50.960;0.314;2024-03-29T11:32:45;97183.31;;;9.84;100.00
64628;BME280;68467;50.960;0.314;2024-03-29T11:35:16;97160.52;;;9.69;100.00
64628;BME280;68467;50.960;0.314;2024-03-29T11:37:43;97170.33;;;9.67;100.00
64628;BME280;68467;50.960;0.314;2024-03-29T11:40:11;97193.23;;;9.87;100.00
64628;BME280;68467;50.960;0.314;2024-03-29T11:42:44;97185.78;;;9.88;100.00
64628;BME280;68467;50.960;0.314;2024-03-29T11:45:13;97163.99;;;10.03;100.00
64628;BME280;68467;50.960;0.314;2024-03-29T11:47:40;97189.27;;;9.70;100.00
64628;BME280;68467;50.960;0.314;2024-03-29T11:50:08;97196.34;;;9.78;100.00
64628;BME280;68467;50.960;0.314;2024-03-29T11:52:37;97185.98;;;9.70;100.00
64628;BME280;68467;50.960;0.314;2024-03-29T11:55:05;97173.96;;;9.55;100.00
64628;BME280;68467;50.960;0.314;2024-03-29T11:57:33;97194.26;;;10.07;100.00
64628;BME280;68467;50.960;0.314;2024-03-29T12:00:00;97187.80;;;10.36;100.00
64628;BME280;68467;50.960;0.314;2024-03-29T12:02:27;97196.96;;;10.17;100.00
64628;BME280;68467;50.960;0.314;2024-03-29T12:04:54;97187.84;;;10.19;100.00
64628;BME280;68467;50.960;0.314;2024-03-29T12:07:22;97207.32;;;10.08;100.00
64628;BME280;68467;50.960;0.314;2024-03-29T12:09:48;97216.28;;;10.11;100.00
64628;BME280;68467;50.960;0.314;2024-03-29T12:12:15;97212.85;;;10.08;100.00
64628;BME280;68467;50.960;0.314;2024-03-29T12:14:43;97209.89;;;9.89;100.00
64628;BME280;68467;50.960;0.314;2024-03-29T12:17:10;97220.72;;;10.00;100.00
64628;BME280;68467;50.960;0.314;2024-03-29T12:19:38;97223.53;;;10.33;100.00
64628;BME280;68467;50.960;0.314;2024-03-29T12:22:05;97217.12;;;9.90;100.00
64628;BME280;68467;50.960;0.314;2024-03-29T12:24:32;97203.11;;;9.71;100.00
64628;BME280;68467;50.960;0.314;2024-03-29T12:26:59;97214.11;;;10.25;100.00
64628;BME280;68467;50.960;0.314;2024-03-29T12:29:27;97226.69;;;10.14;100.00
64628;BME280;68467;50.960;0.314;2024-03-29T12:31:58;97236.13;;;10.18;100.00
64628;BME280;68467;50.960;0.314;2024-03-29T12:34:25;97248.45;;;10.49;100.00
64628;BME280;68467;50.960;0.314;2024-03-29T12:36:52;97236.61;;;10.52;100.00
64628;BME280;68467;50.960;0.314;2024-03-29T12:39:21;97238.72;;;9.95;100.00
64628;BME280;68467;50.960;0.314;2024-03-29T12:41:48;97256.91;;;9.95;100.00
64628;BME280;68467;50.960;0.314;2024-03-29T12:44:16;97254.54;;;10.17;100.00
64628;BME280;68467;50.960;0.314;2024-03-29T12:46:44;97242.97;;;9.72;100.00
64628;BME280;68467;50.960;0.314;2024-03-29T12:49:12;97257.34;;;9.82;100.00
64628;BME280;68467;50.960;0.314;2024-03-29T13:04:02;97275.68;;;10.07;100.00
64628;BME280;68467;50.960;0.314;2024-03-29T13:06:29;97288.06;;;9.80;100.00
64628;BME280;68467;50.960;0.314;2024-03-29T13:08:57;97266.93;;;9.62;100.00
64628;BME280;68467;50.960;0.314;2024-03-29T13:11:24;97286.54;;;9.91;100.00
64628;BME280;68467;50.960;0.314;2024-03-29T13:13:52;97288.94;;;9.71;100.00
64628;BME280;68467;50.960;0.314;2024-03-29T13:16:19;97290.19;;;9.77;100.00